Time;durP1;ratioP1;P1;durP2;ratioP2;P2;SDS_P1;SDS_P2;PMS_P1;PMS_P2;Temp;Humidity;BMP_temperature;BMP_pressure;BME280_temperature;BME280_humidity;BME280_pressure;Samples;Min_cycle;Max_cycle;Signal;HPM_P1;HPM_P2
2021/11/22 00:00:57;;;;;;;7.13;1.00;;;;;;;;;;5072081;28;20463;-63
2021/11/22 00:03:24;;;;;;;8.50;1.15;;;;;;;;;;5078934;28;20050;-64
2021/11/22 00:05:50;;;;;;;6.60;1.50;;;;;;;;;;5079855;28;20090;-63
2021/11/22 00:08:16;;;;;;;8.27;1.10;;;;;;;;;;5074990;28;20067;-63
2021/11/22 00:10:42;;;;;;;4.65;0.82;;;;;;;;;;5074945;28;20113;-63
2021/11/22 00:13:08;;;;;;;6.15;1.10;;;;;;;;;;5077354;28;20076;-63
2021/11/22 00:15:35;;;;;;;8.88;1.10;;;;;;;;;;5075409;28;20038;-64
2021/11/22 00:18:01;;;;;;;7.63;0.95;;;;;;;;;;5058637;28;20052;-63
2021/11/22 00:20:27;;;;;;;6.82;1.35;;;;;;;;;;5073029;28;20041;-63
2021/11/22 00:22:53;;;;;;;17.52;2.13;;;;;;;;;;5075433;28;20036;-63
2021/11/22 00:25:20;;;;;;;6.35;1.20;;;;;;;;;;5050681;28;20048;-64
2021/11/22 00:27:46;;;;;;;6.20;2.05;;;;;;;;;;5045402;28;20087;-63
2021/11/22 00:30:14;;;;;;;6.47;2.20;;;;;;;;;;5058648;28;20136;-64
2021/11/22 00:32:43;;;;;;;7.15;1.08;;;;;;;;;;5043351;28;20116;-64
2021/11/22 00:35:10;;;;;;;8.75;1.10;;;;;;;;;;5053146;28;20105;-63
2021/11/22 00:37:37;;;;;;;7.07;0.98;;;;;;;;;;5045686;28;20114;-63
2021/11/22 00:40:05;;;;;;;1.92;0.60;;;;;;;;;;5058088;28;20044;-63
2021/11/22 00:42:31;;;;;;;13.88;1.33;;;;;;;;;;5064010;28;20037;-63
2021/11/22 00:44:57;;;;;;;7.82;1.05;;;;;;;;;;5058557;28;20063;-63
2021/11/22 00:47:24;;;;;;;9.52;1.63;;;;;;;;;;5067737;28;20594;-63
2021/11/22 00:49:50;;;;;;;8.93;1.52;;;;;;;;;;5066758;28;20119;-64
2021/11/22 00:52:16;;;;;;;5.18;0.98;;;;;;;;;;5062441;28;20060;-63
2021/11/22 00:54:43;;;;;;;4.78;1.10;;;;;;;;;;5063274;28;20072;-63
2021/11/22 00:57:09;;;;;;;9.18;1.00;;;;;;;;;;5044617;28;20410;-63
2021/11/22 00:59:35;;;;;;;12.40;1.00;;;;;;;;;;5054314;28;21311;-63
2021/11/22 01:02:02;;;;;;;5.72;1.27;;;;;;;;;;5076864;28;20032;-63
2021/11/22 01:04:29;;;;;;;9.50;1.38;;;;;;;;;;5077107;28;20045;-63
2021/11/22 01:06:55;;;;;;;9.18;1.10;;;;;;;;;;5073821;28;20047;-63
2021/11/22 01:09:21;;;;;;;10.57;2.42;;;;;;;;;;5080365;28;20488;-63
2021/11/22 01:11:48;;;;;;;12.43;1.38;;;;;;;;;;5077495;28;20394;-63
2021/11/22 01:14:14;;;;;;;7.35;1.15;;;;;;;;;;5058935;28;20050;-63
2021/11/22 01:16:40;;;;;;;13.02;1.25;;;;;;;;;;5078595;28;20169;-64
2021/11/22 01:19:07;;;;;;;6.38;1.35;;;;;;;;;;5076047;28;20559;-63
2021/11/22 01:21:33;;;;;;;9.30;1.55;;;;;;;;;;5074946;28;20036;-63
2021/11/22 01:23:59;;;;;;;11.95;1.50;;;;;;;;;;5079362;28;20041;-63
2021/11/22 01:26:25;;;;;;;14.48;1.63;;;;;;;;;;5045301;28;20037;-64
2021/11/22 01:28:52;;;;;;;7.50;1.15;;;;;;;;;;5055324;28;20105;-64
2021/11/22 01:31:18;;;;;;;8.38;0.98;;;;;;;;;;5071215;28;20390;-63
2021/11/22 01:33:44;;;;;;;9.55;1.42;;;;;;;;;;5072597;28;20125;-63
2021/11/22 01:36:11;;;;;;;6.47;1.08;;;;;;;;;;5055742;28;20044;-64
2021/11/22 01:38:37;;;;;;;6.40;1.60;;;;;;;;;;5051572;28;20041;-63
2021/11/22 01:41:03;;;;;;;13.70;1.50;;;;;;;;;;5069760;28;20118;-63
2021/11/22 01:43:30;;;;;;;8.55;1.15;;;;;;;;;;5055242;28;20048;-63
2021/11/22 01:45:57;;;;;;;9.10;1.90;;;;;;;;;;5073895;28;20041;-64
2021/11/22 01:48:24;;;;;;;11.27;1.60;;;;;;;;;;5069598;28;20059;-63
2021/11/22 01:50:52;;;;;;;4.82;0.90;;;;;;;;;;5057631;28;20044;-63
2021/11/22 01:53:18;;;;;;;6.25;1.17;;;;;;;;;;5077845;28;20121;-63
2021/11/22 01:55:45;;;;;;;6.05;0.90;;;;;;;;;;5078466;28;20059;-63
2021/11/22 01:58:11;;;;;;;5.82;1.02;;;;;;;;;;5040050;28;20045;-63
2021/11/22 02:00:41;;;;;;;6.45;1.05;;;;;;;;;;5073779;28;20548;-63
2021/11/22 02:03:07;;;;;;;7.65;0.90;;;;;;;;;;5048139;28;20504;-64
2021/11/22 02:05:34;;;;;;;11.88;1.48;;;;;;;;;;5069982;28;20044;-63
2021/11/22 02:08:01;;;;;;;10.60;1.45;;;;;;;;;;5068811;28;20060;-64
2021/11/22 02:10:27;;;;;;;5.78;0.90;;;;;;;;;;5053552;28;20119;-63
2021/11/22 02:12:54;;;;;;;9.23;0.85;;;;;;;;;;5055386;28;20124;-63
2021/11/22 02:15:20;;;;;;;11.90;1.20;;;;;;;;;;5054389;28;20033;-63
2021/11/22 02:17:48;;;;;;;12.15;1.23;;;;;;;;;;5053296;28;20044;-63
2021/11/22 02:20:15;;;;;;;8.15;0.90;;;;;;;;;;5053536;28;20037;-63
2021/11/22 02:22:45;;;;;;;5.05;0.93;;;;;;;;;;5049570;28;20052;-63
2021/11/22 02:25:12;;;;;;;7.78;1.10;;;;;;;;;;5051523;28;20049;-63
2021/11/22 02:27:39;;;;;;;19.42;3.17;;;;;;;;;;5051539;28;20121;-63
2021/11/22 02:30:06;;;;;;;11.48;0.80;;;;;;;;;;5050847;28;20103;-63
2021/11/22 02:32:32;;;;;;;15.80;1.10;;;;;;;;;;5032222;28;20557;-63
2021/11/22 02:34:58;;;;;;;8.80;1.23;;;;;;;;;;5032995;28;20507;-63
2021/11/22 02:37:24;;;;;;;5.82;0.90;;;;;;;;;;5047924;28;20442;-63
2021/11/22 02:39:50;;;;;;;4.40;0.80;;;;;;;;;;5049715;28;20508;-63
2021/11/22 02:42:27;;;;;;;5.30;1.17;;;;;;;;;;5060795;28;20048;-63
2021/11/22 02:44:53;;;;;;;6.50;0.90;;;;;;;;;;5060119;28;20041;-63
2021/11/22 02:47:21;;;;;;;5.00;0.85;;;;;;;;;;5047982;28;20040;-63
2021/11/22 02:49:47;;;;;;;8.00;1.05;;;;;;;;;;5058848;28;20560;-63
2021/11/22 02:52:14;;;;;;;3.38;0.85;;;;;;;;;;5057836;28;20036;-63
2021/11/22 02:54:41;;;;;;;9.60;1.15;;;;;;;;;;5060464;28;20069;-63
2021/11/22 02:57:07;;;;;;;8.10;1.00;;;;;;;;;;5037651;28;20483;-63
2021/11/22 02:59:33;;;;;;;3.80;1.08;;;;;;;;;;5052839;28;20143;-63
2021/11/22 03:02:00;;;;;;;8.15;0.80;;;;;;;;;;5037214;28;20043;-63
2021/11/22 03:04:33;;;;;;;8.70;1.10;;;;;;;;;;5056464;28;20047;-63
2021/11/22 03:07:00;;;;;;;10.82;1.50;;;;;;;;;;5049579;28;20476;-63
2021/11/22 03:09:26;;;;;;;10.38;1.15;;;;;;;;;;5032123;28;20134;-64
2021/11/22 03:11:53;;;;;;;10.65;0.90;;;;;;;;;;5046234;28;20521;-64
2021/11/22 03:14:19;;;;;;;10.02;1.17;;;;;;;;;;5050831;28;20087;-63
2021/11/22 03:16:45;;;;;;;11.70;1.10;;;;;;;;;;5027974;28;20037;-63
2021/11/22 03:19:11;;;;;;;10.02;1.48;;;;;;;;;;5044864;28;20048;-63
2021/11/22 03:21:38;;;;;;;7.40;1.05;;;;;;;;;;5025941;28;20110;-63
2021/11/22 03:24:04;;;;;;;6.22;0.88;;;;;;;;;;5042778;28;20377;-63
2021/11/22 03:26:30;;;;;;;8.68;1.95;;;;;;;;;;5049552;28;20151;-63
2021/11/22 03:28:56;;;;;;;9.15;1.13;;;;;;;;;;5045206;28;20060;-63
2021/11/22 03:31:22;;;;;;;4.82;1.00;;;;;;;;;;5043011;28;20116;-63
2021/11/22 03:33:48;;;;;;;4.88;1.25;;;;;;;;;;5048617;28;20048;-63
2021/11/22 03:36:15;;;;;;;9.88;1.20;;;;;;;;;;5027835;28;20128;-63
2021/11/22 03:38:42;;;;;;;7.32;0.90;;;;;;;;;;5054259;28;20184;-63
2021/11/22 03:41:14;;;;;;;10.63;1.60;;;;;;;;;;5040008;28;20064;-63
2021/11/22 03:43:49;;;;;;;4.70;0.95;;;;;;;;;;5042732;28;20055;-63
2021/11/22 03:46:16;;;;;;;8.90;1.02;;;;;;;;;;5058969;28;20056;-63
2021/11/22 03:48:42;;;;;;;7.22;1.02;;;;;;;;;;5057817;28;20159;-63
2021/11/22 03:51:08;;;;;;;14.25;1.05;;;;;;;;;;5057607;28;20052;-63
2021/11/22 03:53:35;;;;;;;3.53;0.90;;;;;;;;;;5053419;28;20474;-63
2021/11/22 03:56:01;;;;;;;8.02;1.25;;;;;;;;;;5051234;28;20171;-63
2021/11/22 03:58:27;;;;;;;7.85;1.10;;;;;;;;;;5051757;28;20365;-63
2021/11/22 04:00:53;;;;;;;8.05;0.98;;;;;;;;;;5048680;28;20053;-63
2021/11/22 04:03:20;;;;;;;10.68;1.20;;;;;;;;;;5029347;28;20461;-63
2021/11/22 04:05:46;;;;;;;10.45;1.42;;;;;;;;;;5030612;28;20053;-63
2021/11/22 04:08:12;;;;;;;12.70;1.30;;;;;;;;;;5061218;28;20040;-63
2021/11/22 04:10:39;;;;;;;14.07;1.38;;;;;;;;;;5071541;28;20476;-63
2021/11/22 04:13:06;;;;;;;6.57;1.15;;;;;;;;;;5078519;28;20045;-63
2021/11/22 04:15:32;;;;;;;6.90;1.50;;;;;;;;;;5068278;28;20048;-63
2021/11/22 04:17:58;;;;;;;6.32;0.98;;;;;;;;;;5071136;28;20097;-65
2021/11/22 04:20:25;;;;;;;6.32;0.73;;;;;;;;;;5051057;28;20044;-64
2021/11/22 04:22:51;;;;;;;9.07;0.90;;;;;;;;;;5055553;28;20048;-64
2021/11/22 04:25:19;;;;;;;5.60;1.00;;;;;;;;;;5066188;28;20128;-63
2021/11/22 04:27:45;;;;;;;5.57;0.98;;;;;;;;;;5072417;28;20040;-63
2021/11/22 04:30:12;;;;;;;3.45;0.63;;;;;;;;;;5071853;28;20165;-62
2021/11/22 04:32:38;;;;;;;13.85;1.05;;;;;;;;;;5075285;28;20070;-63
2021/11/22 04:35:06;;;;;;;7.20;1.20;;;;;;;;;;5070140;28;20067;-63
2021/11/22 04:37:33;;;;;;;7.90;1.00;;;;;;;;;;5072742;28;20036;-63
2021/11/22 04:39:59;;;;;;;2.28;0.80;;;;;;;;;;5066970;28;20052;-63
2021/11/22 04:42:25;;;;;;;5.97;1.10;;;;;;;;;;5072978;28;20429;-63
2021/11/22 04:44:52;;;;;;;6.15;0.90;;;;;;;;;;5077783;28;20044;-63
2021/11/22 04:47:20;;;;;;;9.80;1.58;;;;;;;;;;5075809;28;20199;-63
2021/11/22 04:49:47;;;;;;;9.27;1.00;;;;;;;;;;5077147;28;20481;-63
2021/11/22 04:52:14;;;;;;;7.65;0.80;;;;;;;;;;5073057;28;20040;-63
2021/11/22 04:54:40;;;;;;;9.02;1.00;;;;;;;;;;5070608;28;20147;-63
2021/11/22 04:57:06;;;;;;;10.55;2.10;;;;;;;;;;5068336;28;20031;-63
2021/11/22 04:59:33;;;;;;;5.65;1.00;;;;;;;;;;5069335;28;20132;-64
2021/11/22 05:01:59;;;;;;;4.60;0.88;;;;;;;;;;5069198;28;20048;-63
2021/11/22 05:04:25;;;;;;;10.40;1.33;;;;;;;;;;5066579;28;20039;-63
2021/11/22 05:06:52;;;;;;;5.45;1.10;;;;;;;;;;5050668;28;20403;-63
2021/11/22 05:09:19;;;;;;;6.10;1.50;;;;;;;;;;5050330;28;20052;-63
2021/11/22 05:11:46;;;;;;;7.57;1.27;;;;;;;;;;5065475;28;20132;-63
2021/11/22 05:14:12;;;;;;;10.30;0.80;;;;;;;;;;5067615;28;20076;-63
2021/11/22 05:16:38;;;;;;;9.57;0.98;;;;;;;;;;5070628;28;20166;-63
2021/11/22 05:19:04;;;;;;;6.43;0.85;;;;;;;;;;5069709;28;20049;-63
2021/11/22 05:21:32;;;;;;;9.75;1.27;;;;;;;;;;5067488;28;20036;-63
2021/11/22 05:23:59;;;;;;;7.70;1.10;;;;;;;;;;5068851;28;20063;-63
2021/11/22 05:26:26;;;;;;;6.03;1.17;;;;;;;;;;5073529;28;20037;-63
2021/11/22 05:28:52;;;;;;;5.22;1.17;;;;;;;;;;5066250;28;20154;-63
2021/11/22 05:31:18;;;;;;;9.73;1.30;;;;;;;;;;5065366;28;20045;-63
2021/11/22 05:33:45;;;;;;;13.63;2.28;;;;;;;;;;5048683;28;20048;-63
2021/11/22 05:36:11;;;;;;;7.85;1.33;;;;;;;;;;5050410;28;20441;-63
2021/11/22 05:38:37;;;;;;;4.88;0.88;;;;;;;;;;5069479;28;20491;-63
2021/11/22 05:41:03;;;;;;;3.70;0.90;;;;;;;;;;5065797;28;20364;-63
2021/11/22 05:43:29;;;;;;;5.15;1.13;;;;;;;;;;5050384;28;20044;-64
2021/11/22 05:45:56;;;;;;;8.73;1.23;;;;;;;;;;5054781;28;20041;-63
2021/11/22 05:48:22;;;;;;;9.82;1.00;;;;;;;;;;5054986;28;20131;-64
2021/11/22 05:50:52;;;;;;;5.18;1.00;;;;;;;;;;5060760;28;20044;-64
2021/11/22 05:53:18;;;;;;;5.70;1.08;;;;;;;;;;5064956;28;20499;-63
2021/11/22 05:55:45;;;;;;;10.50;1.25;;;;;;;;;;5062251;28;20501;-63
2021/11/22 05:58:13;;;;;;;5.05;0.90;;;;;;;;;;5048577;28;20053;-64
2021/11/22 06:00:40;;;;;;;5.85;1.05;;;;;;;;;;5051248;28;20130;-63
2021/11/22 06:03:06;;;;;;;9.10;1.30;;;;;;;;;;5071851;28;20040;-63
2021/11/22 06:05:33;;;;;;;2.85;0.90;;;;;;;;;;5063450;28;20119;-63
2021/11/22 06:07:59;;;;;;;5.05;0.90;;;;;;;;;;5064844;28;20048;-63
2021/11/22 06:10:26;;;;;;;3.30;0.68;;;;;;;;;;5058749;28;20049;-63
2021/11/22 06:12:52;;;;;;;4.25;1.50;;;;;;;;;;5068991;28;20080;-63
2021/11/22 06:15:18;;;;;;;3.38;0.73;;;;;;;;;;5064414;28;20044;-63
2021/11/22 06:17:45;;;;;;;4.28;1.13;;;;;;;;;;5049602;28;20051;-63
2021/11/22 06:20:11;;;;;;;10.55;1.08;;;;;;;;;;5066035;28;20044;-63
2021/11/22 06:22:37;;;;;;;3.00;0.93;;;;;;;;;;5043885;28;20053;-63
2021/11/22 06:25:04;;;;;;;4.18;1.00;;;;;;;;;;5065645;28;20044;-63
2021/11/22 06:27:31;;;;;;;6.45;1.30;;;;;;;;;;5071294;28;20674;-63
2021/11/22 06:29:57;;;;;;;5.35;0.80;;;;;;;;;;5069117;28;20036;-63
2021/11/22 06:32:27;;;;;;;6.78;1.17;;;;;;;;;;5072923;28;20039;-63
2021/11/22 06:34:53;;;;;;;6.40;1.40;;;;;;;;;;5080839;28;20064;-63
2021/11/22 06:37:20;;;;;;;4.88;1.15;;;;;;;;;;5080528;28;20044;-63
2021/11/22 06:39:46;;;;;;;10.75;1.20;;;;;;;;;;5056390;28;20036;-63
2021/11/22 06:42:12;;;;;;;8.82;1.42;;;;;;;;;;5055997;28;20063;-63
2021/11/22 06:44:38;;;;;;;7.53;2.20;;;;;;;;;;5059013;28;20048;-64
2021/11/22 06:47:05;;;;;;;8.90;1.40;;;;;;;;;;5079674;28;20044;-63
2021/11/22 06:49:32;;;;;;;7.82;1.63;;;;;;;;;;5060775;28;20094;-64
2021/11/22 06:51:58;;;;;;;5.53;1.33;;;;;;;;;;5080184;28;20048;-63
2021/11/22 06:54:24;;;;;;;4.28;1.00;;;;;;;;;;5071873;28;20048;-63
2021/11/22 06:56:51;;;;;;;5.68;1.58;;;;;;;;;;5073259;28;20128;-63
2021/11/22 06:59:17;;;;;;;5.57;1.23;;;;;;;;;;5078784;28;20047;-62
2021/11/22 07:01:43;;;;;;;2.72;1.10;;;;;;;;;;5065886;28;20071;-63
2021/11/22 07:04:09;;;;;;;14.75;1.25;;;;;;;;;;5065241;28;20041;-63
2021/11/22 07:06:36;;;;;;;8.85;3.78;;;;;;;;;;5069053;28;20123;-63
2021/11/22 07:09:02;;;;;;;9.15;0.95;;;;;;;;;;5073773;28;20053;-63
2021/11/22 07:11:29;;;;;;;4.05;1.00;;;;;;;;;;5071748;28;20056;-63
2021/11/22 07:13:56;;;;;;;4.05;0.85;;;;;;;;;;5070606;28;20040;-64
2021/11/22 07:16:22;;;;;;;3.35;0.93;;;;;;;;;;5070228;28;20044;-64
2021/11/22 07:18:48;;;;;;;8.98;1.20;;;;;;;;;;5072247;28;20066;-64
2021/11/22 07:21:14;;;;;;;5.65;0.90;;;;;;;;;;5051236;28;20575;-64
2021/11/22 07:23:40;;;;;;;11.35;1.67;;;;;;;;;;5070981;28;20051;-64
2021/11/22 07:26:07;;;;;;;8.30;1.70;;;;;;;;;;5069673;28;20037;-64
2021/11/22 07:28:33;;;;;;;9.00;1.20;;;;;;;;;;5057485;28;20041;-64
2021/11/22 07:30:59;;;;;;;7.65;1.13;;;;;;;;;;5054022;28;20400;-64
2021/11/22 07:33:25;;;;;;;6.68;1.35;;;;;;;;;;5048847;28;20475;-63
2021/11/22 07:35:51;;;;;;;10.32;2.33;;;;;;;;;;5078466;28;20036;-64
2021/11/22 07:38:18;;;;;;;8.65;1.02;;;;;;;;;;5063319;28;20086;-62
2021/11/22 07:40:45;;;;;;;4.68;1.00;;;;;;;;;;5073002;28;20601;-63
2021/11/22 07:43:11;;;;;;;6.97;1.40;;;;;;;;;;5070120;28;20049;-63
2021/11/22 07:45:37;;;;;;;10.48;1.88;;;;;;;;;;5067468;28;20554;-63
2021/11/22 07:48:04;;;;;;;6.55;1.77;;;;;;;;;;5071499;28;20040;-63
2021/11/22 07:50:31;;;;;;;22.58;2.42;;;;;;;;;;5071239;28;20037;-62
2021/11/22 07:52:57;;;;;;;11.50;2.28;;;;;;;;;;5070074;28;20145;-63
2021/11/22 07:55:23;;;;;;;5.10;1.42;;;;;;;;;;5070118;28;20036;-62
2021/11/22 07:57:51;;;;;;;6.80;1.25;;;;;;;;;;5070610;28;20052;-63
2021/11/22 08:00:18;;;;;;;6.97;1.27;;;;;;;;;;5067715;28;20396;-62
2021/11/22 08:02:44;;;;;;;5.38;1.45;;;;;;;;;;5053076;28;20048;-63
2021/11/22 08:05:11;;;;;;;5.85;1.23;;;;;;;;;;5054040;28;20044;-63
2021/11/22 08:07:40;;;;;;;5.32;1.45;;;;;;;;;;5068053;28;20056;-62
2021/11/22 08:10:16;;;;;;;5.63;1.95;;;;;;;;;;5069339;28;20040;-62
2021/11/22 08:12:42;;;;;;;9.10;2.00;;;;;;;;;;5066769;28;20115;-62
2021/11/22 08:15:10;;;;;;;5.93;1.35;;;;;;;;;;5068862;28;20449;-63
2021/11/22 08:17:42;;;;;;;5.20;1.50;;;;;;;;;;5069455;28;20040;-63
2021/11/22 08:20:09;;;;;;;4.22;1.50;;;;;;;;;;5069132;28;20392;-67
2021/11/22 08:22:36;;;;;;;5.55;1.50;;;;;;;;;;5071019;28;20441;-62
2021/11/22 08:25:02;;;;;;;5.53;1.40;;;;;;;;;;5068004;28;20343;-62
2021/11/22 08:27:29;;;;;;;3.90;1.45;;;;;;;;;;5065294;28;20482;-63
2021/11/22 08:29:56;;;;;;;6.18;1.35;;;;;;;;;;5068293;28;20502;-63
2021/11/22 08:32:23;;;;;;;10.40;2.85;;;;;;;;;;5054144;28;20068;-63
2021/11/22 08:34:49;;;;;;;9.18;2.50;;;;;;;;;;5051406;28;20558;-63
2021/11/22 08:37:15;;;;;;;6.75;2.10;;;;;;;;;;5067483;28;20059;-62
2021/11/22 08:39:41;;;;;;;8.70;2.30;;;;;;;;;;5066648;28;20143;-62
2021/11/22 08:42:08;;;;;;;7.70;1.95;;;;;;;;;;5051006;28;20060;-62
2021/11/22 08:44:34;;;;;;;13.23;2.40;;;;;;;;;;5068791;28;20051;-63
2021/11/22 08:47:01;;;;;;;8.02;2.70;;;;;;;;;;5068643;28;20037;-63
2021/11/22 08:49:27;;;;;;;7.43;2.28;;;;;;;;;;5067837;28;20102;-62
2021/11/22 08:51:54;;;;;;;12.18;2.92;;;;;;;;;;5069958;28;20142;-62
2021/11/22 08:54:20;;;;;;;7.80;2.13;;;;;;;;;;5068460;28;20354;-62
2021/11/22 08:56:47;;;;;;;11.20;2.40;;;;;;;;;;5068175;28;20048;-62
2021/11/22 08:59:13;;;;;;;8.75;2.58;;;;;;;;;;5069214;28;20520;-62
2021/11/22 09:01:39;;;;;;;14.50;2.53;;;;;;;;;;5070104;28;20590;-63
2021/11/22 09:04:06;;;;;;;8.98;2.55;;;;;;;;;;5069504;28;20508;-63
2021/11/22 09:06:34;;;;;;;11.20;2.83;;;;;;;;;;5070222;28;20047;-62
2021/11/22 09:09:01;;;;;;;10.48;2.17;;;;;;;;;;5067620;28;20061;-63
2021/11/22 09:11:27;;;;;;;8.43;2.78;;;;;;;;;;5069277;28;20044;-64
2021/11/22 09:13:53;;;;;;;6.10;1.92;;;;;;;;;;5069719;28;20048;-64
2021/11/22 09:16:26;;;;;;;7.20;2.08;;;;;;;;;;5070193;28;20043;-64
2021/11/22 09:18:53;;;;;;;9.90;2.43;;;;;;;;;;5066153;28;20115;-64
2021/11/22 09:21:19;;;;;;;8.18;2.63;;;;;;;;;;5071820;28;20434;-62
2021/11/22 09:23:47;;;;;;;6.85;1.98;;;;;;;;;;5071882;28;20048;-62
2021/11/22 09:26:14;;;;;;;6.60;1.95;;;;;;;;;;5072390;28;20079;-61
2021/11/22 09:28:40;;;;;;;7.38;1.80;;;;;;;;;;5074068;28;20093;-62
2021/11/22 09:31:07;;;;;;;12.40;2.00;;;;;;;;;;5074492;28;20055;-61
2021/11/22 09:33:33;;;;;;;6.50;2.08;;;;;;;;;;5065785;28;20063;-61
2021/11/22 09:36:01;;;;;;;6.22;2.45;;;;;;;;;;5068981;28;20480;-62
2021/11/22 09:38:27;;;;;;;8.07;1.98;;;;;;;;;;5063269;28;20105;-61
2021/11/22 09:40:54;;;;;;;5.72;1.92;;;;;;;;;;5057313;28;20484;-62
2021/11/22 09:43:21;;;;;;;12.15;2.05;;;;;;;;;;5080344;28;20559;-62
2021/11/22 09:45:47;;;;;;;7.05;1.67;;;;;;;;;;5070672;28;20049;-62
2021/11/22 09:48:14;;;;;;;12.45;1.80;;;;;;;;;;5074693;28;20036;-62
2021/11/22 09:50:40;;;;;;;12.35;1.40;;;;;;;;;;5069485;28;20075;-62
2021/11/22 09:53:07;;;;;;;7.05;1.00;;;;;;;;;;5066047;28;20488;-61
2021/11/22 09:55:34;;;;;;;7.43;1.25;;;;;;;;;;5074771;28;20096;-62
2021/11/22 09:58:01;;;;;;;10.00;1.60;;;;;;;;;;5073437;28;20090;-62
2021/11/22 10:00:36;;;;;;;6.32;1.20;;;;;;;;;;5065773;28;20044;-62
2021/11/22 10:03:02;;;;;;;4.78;0.95;;;;;;;;;;5049034;28;20124;-61
2021/11/22 10:05:33;;;;;;;5.18;1.17;;;;;;;;;;5053880;28;20044;-62
2021/11/22 10:08:07;;;;;;;6.85;1.50;;;;;;;;;;5070234;28;20045;-62
2021/11/22 10:10:34;;;;;;;7.78;1.23;;;;;;;;;;5076608;28;20047;-61
2021/11/22 10:13:01;;;;;;;6.40;1.30;;;;;;;;;;5069598;28;20036;-62
2021/11/22 10:15:33;;;;;;;11.88;1.50;;;;;;;;;;5071644;28;20044;-62
2021/11/22 10:18:00;;;;;;;10.65;1.33;;;;;;;;;;5056933;28;20056;-62
2021/11/22 10:20:27;;;;;;;8.35;1.38;;;;;;;;;;5072172;28;20036;-62
2021/11/22 10:22:56;;;;;;;6.22;1.63;;;;;;;;;;5072340;28;20044;-62
2021/11/22 10:25:27;;;;;;;8.82;1.35;;;;;;;;;;5069254;28;20044;-62
2021/11/22 10:27:53;;;;;;;4.55;1.25;;;;;;;;;;5053231;28;20089;-62
2021/11/22 10:30:20;;;;;;;9.48;1.35;;;;;;;;;;5054559;28;20109;-62
2021/11/22 10:32:46;;;;;;;6.95;1.35;;;;;;;;;;5070226;28;20488;-62
2021/11/22 10:35:15;;;;;;;5.25;1.48;;;;;;;;;;5070488;28;20036;-61
2021/11/22 10:37:56;;;;;;;9.23;1.38;;;;;;;;;;5055489;28;20044;-62
2021/11/22 10:40:23;;;;;;;5.60;1.73;;;;;;;;;;5073589;28;20218;-62
2021/11/22 10:42:49;;;;;;;12.10;2.45;;;;;;;;;;5072981;28;20048;-62
2021/11/22 10:45:24;;;;;;;8.07;1.77;;;;;;;;;;5072577;28;20040;-62
2021/11/22 10:47:56;;;;;;;5.78;1.20;;;;;;;;;;5071151;28;20048;-62
2021/11/22 10:50:25;;;;;;;9.63;1.52;;;;;;;;;;5070329;28;20033;-62
2021/11/22 10:52:51;;;;;;;7.40;1.70;;;;;;;;;;5071617;28;20056;-62
2021/11/22 10:55:17;;;;;;;8.52;1.58;;;;;;;;;;5069319;28;20036;-62
2021/11/22 10:57:45;;;;;;;11.05;2.45;;;;;;;;;;5051804;28;20048;-62
2021/11/22 11:00:20;;;;;;;6.63;1.40;;;;;;;;;;5068223;28;20044;-62
2021/11/22 11:02:47;;;;;;;4.72;1.55;;;;;;;;;;5067146;28;20084;-62
2021/11/22 11:05:29;;;;;;;6.10;1.00;;;;;;;;;;5071729;28;20507;-62
2021/11/22 11:08:00;;;;;;;6.47;1.05;;;;;;;;;;5072151;28;20070;-62
2021/11/22 11:10:27;;;;;;;6.10;1.73;;;;;;;;;;5074067;28;20044;-62
2021/11/22 11:12:55;;;;;;;2.55;0.60;;;;;;;;;;5078520;28;20043;-62
2021/11/22 11:15:23;;;;;;;11.35;1.38;;;;;;;;;;5073240;28;20048;-62
2021/11/22 11:17:49;;;;;;;19.27;2.08;;;;;;;;;;5084423;28;20032;-62
2021/11/22 11:20:17;;;;;;;14.02;1.40;;;;;;;;;;5074416;28;20048;-62
2021/11/22 11:22:44;;;;;;;8.93;0.80;;;;;;;;;;5073972;28;20048;-62
2021/11/22 11:25:11;;;;;;;4.80;0.88;;;;;;;;;;5070412;28;20450;-62
2021/11/22 11:27:40;;;;;;;3.45;1.08;;;;;;;;;;5053001;28;20131;-62
2021/11/22 11:30:06;;;;;;;5.70;0.93;;;;;;;;;;5069680;28;20040;-62
2021/11/22 11:32:33;;;;;;;7.20;1.40;;;;;;;;;;5051910;28;20945;-62
2021/11/22 11:35:00;;;;;;;6.75;1.25;;;;;;;;;;5070225;28;20037;-62
2021/11/22 11:37:40;;;;;;;7.97;1.10;;;;;;;;;;5071595;28;20040;-62
2021/11/22 11:40:15;;;;;;;4.10;0.90;;;;;;;;;;5076794;28;20048;-63
2021/11/22 11:42:48;;;;;;;5.85;0.70;;;;;;;;;;5076097;28;20043;-62
2021/11/22 11:45:17;;;;;;;8.32;1.00;;;;;;;;;;5055978;28;20464;-63
2021/11/22 11:47:44;;;;;;;8.77;1.70;;;;;;;;;;5070837;28;20158;-62
2021/11/22 11:50:18;;;;;;;5.70;0.73;;;;;;;;;;5063151;28;20056;-63
2021/11/22 11:52:51;;;;;;;3.83;0.80;;;;;;;;;;5079189;28;20151;-63
2021/11/22 11:55:17;;;;;;;3.63;0.95;;;;;;;;;;5058797;28;20402;-63
2021/11/22 11:57:43;;;;;;;4.97;0.82;;;;;;;;;;5072150;28;20106;-63
2021/11/22 12:00:25;;;;;;;5.97;0.93;;;;;;;;;;5075321;28;20433;-63
2021/11/22 12:03:00;;;;;;;7.65;0.90;;;;;;;;;;5054349;28;20096;-61
2021/11/22 12:05:42;;;;;;;7.18;1.00;;;;;;;;;;5052056;28;20045;-63
2021/11/22 12:08:20;;;;;;;6.60;1.00;;;;;;;;;;5060340;28;20052;-63
2021/11/22 12:10:46;;;;;;;5.78;0.98;;;;;;;;;;5030974;28;20056;-62
2021/11/22 12:13:14;;;;;;;8.63;1.15;;;;;;;;;;5043135;28;20171;-63
2021/11/22 12:15:41;;;;;;;3.97;0.80;;;;;;;;;;5050356;28;20052;-63
2021/11/22 12:18:09;;;;;;;6.68;0.95;;;;;;;;;;5083853;28;20048;-62
2021/11/22 12:20:35;;;;;;;6.65;1.17;;;;;;;;;;5085623;28;20041;-62
2021/11/22 12:23:03;;;;;;;4.47;0.75;;;;;;;;;;5082266;28;20044;-62
2021/11/22 12:25:38;;;;;;;6.45;1.15;;;;;;;;;;5084732;28;20032;-63
2021/11/22 12:28:05;;;;;;;3.45;0.70;;;;;;;;;;5078027;28;20070;-62
2021/11/22 12:30:32;;;;;;;7.40;1.10;;;;;;;;;;5083522;28;20478;-62
2021/11/22 12:33:17;;;;;;;5.38;0.93;;;;;;;;;;5086271;28;20498;-63
2021/11/22 12:35:43;;;;;;;5.38;0.80;;;;;;;;;;5083176;28;20039;-62
2021/11/22 12:38:20;;;;;;;7.13;1.10;;;;;;;;;;5081924;28;20109;-62
2021/11/22 12:40:47;;;;;;;11.50;1.35;;;;;;;;;;5055499;28;20412;-63
2021/11/22 12:43:14;;;;;;;8.38;1.52;;;;;;;;;;5080409;28;20878;-63
2021/11/22 12:45:57;;;;;;;7.03;1.45;;;;;;;;;;5081701;28;20079;-63
2021/11/22 12:48:25;;;;;;;6.57;1.30;;;;;;;;;;5086089;28;20160;-62
2021/11/22 12:50:56;;;;;;;5.82;1.17;;;;;;;;;;5083667;28;20407;-62
2021/11/22 12:53:22;;;;;;;6.45;1.10;;;;;;;;;;5079421;28;20044;-63
2021/11/22 12:55:49;;;;;;;3.85;0.93;;;;;;;;;;5085751;28;20052;-63
2021/11/22 12:58:20;;;;;;;5.03;0.90;;;;;;;;;;5089956;28;20353;-62
2021/11/22 13:00:47;;;;;;;7.97;1.52;;;;;;;;;;5070218;28;20047;-63
2021/11/22 13:03:14;;;;;;;10.65;1.02;;;;;;;;;;5092147;28;20051;-63
2021/11/22 13:05:44;;;;;;;9.52;1.48;;;;;;;;;;5093573;28;20047;-63
2021/11/22 13:08:17;;;;;;;8.95;1.23;;;;;;;;;;5094146;28;20055;-63
2021/11/22 13:10:45;;;;;;;7.57;1.03;;;;;;;;;;5090813;28;20052;-63
2021/11/22 13:13:17;;;;;;;8.13;1.20;;;;;;;;;;5095050;28;20312;-63
2021/11/22 13:15:54;;;;;;;9.30;2.15;;;;;;;;;;5082811;28;20376;-63
2021/11/22 13:18:21;;;;;;;8.27;1.35;;;;;;;;;;5090675;28;20094;-63
2021/11/22 13:20:47;;;;;;;5.93;1.33;;;;;;;;;;5093068;28;20394;-62
2021/11/22 13:23:16;;;;;;;4.45;0.90;;;;;;;;;;5093673;28;20047;-62
2021/11/22 13:25:42;;;;;;;10.13;1.42;;;;;;;;;;5092890;28;20576;-63
2021/11/22 13:28:09;;;;;;;5.28;1.23;;;;;;;;;;5092108;28;20407;-63
2021/11/22 13:30:36;;;;;;;7.78;1.67;;;;;;;;;;5088476;28;20233;-62
2021/11/22 13:33:03;;;;;;;7.97;1.50;;;;;;;;;;5086392;28;20112;-63
2021/11/22 13:35:29;;;;;;;10.95;1.73;;;;;;;;;;5073466;28;20048;-62
2021/11/22 13:38:13;;;;;;;14.70;3.95;;;;;;;;;;5070958;28;20556;-63
2021/11/22 13:40:41;;;;;;;4.70;1.50;;;;;;;;;;5075445;28;20140;-62
2021/11/22 13:43:09;;;;;;;7.97;1.42;;;;;;;;;;5070292;28;20052;-63
2021/11/22 13:45:35;;;;;;;4.70;1.10;;;;;;;;;;5064429;28;20040;-62
2021/11/22 13:48:02;;;;;;;5.95;1.02;;;;;;;;;;5073685;28;20079;-62
2021/11/22 13:50:40;;;;;;;4.97;0.75;;;;;;;;;;5093624;28;20048;-62
2021/11/22 13:53:06;;;;;;;5.72;1.20;;;;;;;;;;5090788;28;20430;-63
2021/11/22 13:55:33;;;;;;;8.40;2.13;;;;;;;;;;5089659;28;20087;-68
2021/11/22 13:58:13;;;;;;;8.07;1.52;;;;;;;;;;5071524;28;20128;-71
2021/11/22 14:00:40;;;;;;;8.05;1.70;;;;;;;;;;5092392;28;20560;-64
2021/11/22 14:03:08;;;;;;;37.15;10.38;;;;;;;;;;5071101;28;20045;-64
2021/11/22 14:05:35;;;;;;;11.98;2.40;;;;;;;;;;5091486;28;20181;-62
2021/11/22 14:08:01;;;;;;;12.65;1.92;;;;;;;;;;5089357;28;20507;-62
2021/11/22 14:10:30;;;;;;;8.40;1.80;;;;;;;;;;5093531;28;20040;-62
2021/11/22 14:13:06;;;;;;;17.27;3.70;;;;;;;;;;5092134;28;20150;-62
2021/11/22 14:15:34;;;;;;;17.50;2.20;;;;;;;;;;5097466;28;20063;-63
2021/11/22 14:18:03;;;;;;;12.15;2.03;;;;;;;;;;5078470;28;20047;-62
2021/11/22 14:20:29;;;;;;;9.40;1.58;;;;;;;;;;5091876;28;20059;-63
2021/11/22 14:23:04;;;;;;;7.22;1.73;;;;;;;;;;5090174;28;20476;-63
2021/11/22 14:25:33;;;;;;;10.85;1.92;;;;;;;;;;5072205;28;20385;-62
2021/11/22 14:28:00;;;;;;;10.90;1.95;;;;;;;;;;5093979;28;20347;-62
2021/11/22 14:30:28;;;;;;;7.93;1.63;;;;;;;;;;5093153;28;20403;-63
2021/11/22 14:33:01;;;;;;;7.10;1.30;;;;;;;;;;5090411;28;20063;-62
2021/11/22 14:35:29;;;;;;;10.48;2.65;;;;;;;;;;5098500;28;20079;-63
2021/11/22 14:38:14;;;;;;;6.88;1.67;;;;;;;;;;5087349;28;20407;-62
2021/11/22 14:40:41;;;;;;;8.07;1.33;;;;;;;;;;5089856;28;20040;-62
2021/11/22 14:43:18;;;;;;;11.07;1.63;;;;;;;;;;5093332;28;20449;-63